Latest Weather Observations for Maryborough

IDQ60801

Issued at 9:32 pm EST Friday 9 December 2016 (issued every 30 minutes, with the page automatically refreshed every 10 minutes)

About weather observations | Map of weather stations | Latest weather observations for QLD | Other Formats
Station Details ID: 040126 Name: MARYBOROUGH Lat: -25.51 Lon: 152.72 Height: 8.98 m
Data from the previous 72 hours. | See also: Recent months at Maryborough
Date/Time
EST
Temp
°C
App
Temp
°C
Dew
Point
°C
Rel
Hum
%
Delta-T
°C
Wind Press
QNH
hPa
Press
MSL
hPa
Rain since
9am
mm
Dir  Spd
km/h
Gust
km/h
Spd
kts
Gust
kts
09/09:30pm 23.6 26.6 20.9 85 1.8 NNW 6 7 3 4 1014.1 - 0.2
09/09:00pm 24.0 27.1 21.5 86 1.7 NNW 7 9 4 5 1013.7 1013.6 0.2
09/08:30pm 23.7 26.8 21.4 87 1.5 N 7 9 4 5 1013.1 - 0.2
09/08:00pm 23.8 28.1 21.1 85 1.8 CALM 0 7 0 4 1013.0 - 0.2
09/07:30pm 24.0 27.0 20.9 83 2.0 N 6 7 3 4 1012.8 - 0.2
09/07:00pm 24.1 27.3 21.2 84 1.9 N 6 6 3 3 1012.5 - 0.2
09/06:30pm 24.0 28.1 20.7 82 2.2 CALM 0 0 0 0 1011.9 - 0.2
09/06:00pm 24.5 28.5 21.4 83 2.0 N 2 7 1 4 1011.6 1011.5 0.2
09/05:30pm 24.7 28.8 20.8 79 2.6 CALM 0 0 0 0 1011.5 - 0.2
09/05:00pm 26.0 28.5 20.3 71 3.7 SW 7 11 4 6 1011.0 - 0.2
09/04:30pm 26.8 27.9 19.7 65 4.6 S 13 17 7 9 1010.8 - 0.2
09/04:00pm 28.3 29.7 19.5 59 5.7 S 11 13 6 7 1010.4 - 0.0
09/03:30pm 28.8 29.2 18.9 55 6.4 S 15 20 8 11 1010.2 - 0.0
09/03:00pm 28.5 30.0 19.7 59 5.7 SSW 11 15 6 8 1010.1 1010.0 0.0
09/02:30pm 29.6 29.9 17.8 49 7.5 SW 13 19 7 10 1009.9 - 0.0
09/02:00pm 30.4 29.6 17.1 44 8.4 WSW 17 24 9 13 1009.8 - 0.0
09/01:30pm 30.6 29.9 18.3 47 7.9 WSW 19 32 10 17 1010.1 - 0.0
09/01:00pm 30.7 31.5 19.1 50 7.6 W 13 19 7 10 1010.1 - 0.0
09/12:30pm 30.6 32.0 19.6 51 7.2 W 11 17 6 9 1009.9 - 0.0
09/12:00pm 30.5 31.5 19.5 51 7.2 W 13 19 7 10 1010.0 1009.9 0.0
09/11:30am 30.7 31.7 20.3 53 6.9 W 15 20 8 11 1010.3 - 0.0
09/11:00am 30.8 31.3 20.1 53 7.1 W 17 24 9 13 1010.3 - 0.0
09/10:30am 31.9 32.8 20.8 51 7.4 WSW 17 28 9 15 1010.5 - 0.0
09/10:00am 30.0 31.0 21.1 59 5.9 W 17 22 9 12 1010.7 - 0.0
09/09:30am 29.3 29.3 20.2 58 6.0 W 20 32 11 17 1011.0 - 0.0
09/09:00am 29.8 31.0 21.5 61 5.6 W 17 26 9 14 1011.2 1011.1 11.4
09/08:30am 28.1 28.7 21.1 65 4.7 SW 19 26 10 14 1011.5 - 11.4
09/08:00am 27.4 29.1 22.3 73 3.4 WSW 17 22 9 12 1011.9 - 11.4
09/07:30am 26.1 28.8 22.2 79 2.6 WNW 11 17 6 9 1011.8 - 11.4
09/07:00am 24.9 27.4 22.4 86 1.7 W 13 17 7 9 1012.0 - 11.4
09/06:30am 23.6 25.9 21.3 87 1.5 WNW 11 15 6 8 1011.5 - 11.4
09/06:00am 22.6 25.9 21.8 95 0.5 WNW 7 11 4 6 1011.3 1011.2 11.4
09/05:30am 21.2 24.4 19.8 92 0.9 W 2 6 1 3 1010.9 - 11.4
09/05:00am 21.2 23.6 19.7 91 1.0 WNW 6 7 3 4 1010.7 - 11.4
09/04:30am 21.0 23.2 19.5 91 1.0 WNW 7 9 4 5 1010.4 - 11.4
09/04:00am 20.6 23.9 19.1 91 0.9 CALM 0 4 0 2 1010.2 - 11.4
09/03:30am 20.7 22.9 19.2 91 0.9 N 6 7 3 4 1010.0 - 11.4
09/03:00am 20.4 22.2 18.7 90 1.1 N 7 11 4 6 1009.9 1009.8 11.2
09/02:30am 20.5 22.5 19.2 92 0.8 N 7 11 4 6 1010.0 - 11.2
09/02:00am 20.6 21.9 19.3 92 0.8 NNE 11 15 6 8 1010.5 - 11.0
09/01:30am 21.6 24.5 20.6 94 0.6 N 6 13 3 7 1011.1 - 9.6
09/01:00am 21.9 24.8 20.7 93 0.8 NNW 6 7 3 4 1011.6 - 8.8
09/12:39am 22.0 22.8 20.6 92 0.9 NNW 17 22 9 12 1012.5 - 7.8
09/12:30am 22.3 23.2 20.9 92 0.9 NW 17 22 9 12 1012.9 - 7.4
09/12:28am 22.3 23.2 20.9 92 0.9 NW 17 22 9 12 1012.8 - 7.2
09/12:14am 22.4 22.5 20.3 88 1.4 WNW 20 26 11 14 1013.1 - 6.0
09/12:00am 23.0 24.0 21.1 89 1.2 WSW 17 22 9 12 1013.1 1013.0 5.0
 
Date/Time
EST
Temp
°C
App
Temp
°C
Dew
Point
°C
Rel
Hum
%
Delta-T
°C
Wind Press
QNH
hPa
Press
MSL
hPa
Rain since
9am
mm
Dir  Spd
km/h
Gust
km/h
Spd
kts
Gust
kts
08/11:59pm 23.0 23.9 20.9 88 1.4 WSW 17 22 9 12 1013.0 - 5.0
08/11:30pm 23.5 26.0 21.0 86 1.6 WSW 9 13 5 7 1012.9 - 2.4
08/11:00pm 24.1 27.0 21.8 87 1.5 WSW 9 13 5 7 1012.7 - 1.4
08/10:30pm 24.2 25.0 19.9 77 2.8 W 15 28 8 15 1012.6 - 0.4
08/10:00pm 25.4 27.8 21.5 79 2.6 WNW 11 17 6 9 1011.9 - 0.0
08/09:30pm 25.6 27.4 21.1 76 3.0 NNW 13 19 7 10 1011.3 - 0.0
08/09:00pm 25.5 27.0 21.2 77 2.8 N 15 20 8 11 1010.8 1010.7 0.0
08/08:30pm 25.3 26.6 20.8 76 3.0 N 15 20 8 11 1010.6 - 0.0
08/08:00pm 25.3 26.8 20.5 75 3.1 N 13 17 7 9 1010.4 - 0.0
08/07:30pm 25.4 26.7 20.2 73 3.4 N 13 19 7 10 1010.0 - 0.0
08/07:00pm 25.9 26.2 20.5 72 3.5 N 19 30 10 16 1009.7 - 0.0
08/06:30pm 26.1 26.4 20.4 71 3.7 N 19 30 10 16 1009.0 - 0.0
08/06:00pm 26.7 26.7 20.1 67 4.3 N 20 30 11 16 1008.5 1008.4 0.0
08/05:30pm 27.2 27.6 19.8 64 4.8 N 17 28 9 15 1008.8 - 0.0
08/05:00pm 28.6 28.9 19.5 58 5.9 N 17 26 9 14 1008.5 - 0.0
08/04:30pm 28.7 28.3 18.8 55 6.4 N 19 32 10 17 1008.0 - 0.0
08/04:00pm 29.3 28.8 19.0 53 6.7 N 20 32 11 17 1008.4 - 0.0
08/03:30pm 29.0 27.9 18.7 53 6.6 N 22 32 12 17 1008.6 - 0.0
08/03:00pm 30.4 29.7 19.4 51 7.2 N 22 33 12 18 1008.7 1008.6 0.0
08/02:30pm 30.8 30.7 19.5 51 7.4 N 19 32 10 17 1009.1 - 0.0
08/02:00pm 31.9 32.1 20.2 50 7.8 N 19 30 10 16 1009.6 - 0.0
08/01:30pm 30.7 29.6 19.4 51 7.4 NNW 24 35 13 19 1010.0 - 0.0
08/01:00pm 33.1 33.0 19.9 45 8.7 NNW 20 26 11 14 1010.1 - 0.0
08/12:30pm 32.3 32.6 18.8 44 8.8 NNE 15 32 8 17 1010.7 - 0.0
08/12:00pm 32.3 32.9 19.5 46 8.4 NNE 15 26 8 14 1011.1 1011.0 0.0
08/11:30am 30.9 30.9 18.9 48 7.8 N 17 24 9 13 1011.7 - 0.0
08/11:00am 30.3 30.2 18.7 50 7.5 N 17 24 9 13 1011.7 - 0.0
08/10:30am 30.2 30.6 18.9 50 7.3 N 15 24 8 13 1011.8 - 0.0
08/10:00am 30.7 31.5 19.1 50 7.6 N 13 22 7 12 1012.1 - 0.0
08/09:30am 30.1 30.7 19.5 53 6.9 N 15 24 8 13 1011.8 - 0.0
08/09:00am 29.3 29.6 18.7 52 6.8 N 15 26 8 14 1012.2 1012.1 0.0
08/08:30am 28.3 28.6 19.5 59 5.7 N 17 22 9 12 1012.4 - 0.0
08/08:00am 27.8 29.1 20.1 63 5.0 N 13 26 7 14 1012.5 - 0.0
08/07:30am 27.4 30.0 21.2 69 4.1 N 9 15 5 8 1012.4 - 0.0
08/07:00am 26.4 28.7 20.7 71 3.7 NE 9 15 5 8 1012.4 - 0.0
08/06:30am 25.9 29.8 21.1 75 3.2 N 2 6 1 3 1012.5 - 0.0
08/06:00am 24.6 29.4 22.1 86 1.7 CALM 0 0 0 0 1012.4 1012.3 0.0
08/05:30am 22.2 26.3 20.7 91 1.0 CALM 0 0 0 0 1012.3 - 0.0
08/05:00am 21.5 25.2 20.0 91 1.0 CALM 0 0 0 0 1012.1 - 0.0
08/04:30am 21.7 25.3 19.8 89 1.2 CALM 0 0 0 0 1011.9 - 0.0
08/04:00am 22.1 25.0 19.8 87 1.5 NNE 4 6 2 3 1011.8 - 0.0
08/03:30am 22.9 26.8 20.4 86 1.6 CALM 0 0 0 0 1011.8 - 0.0
08/03:00am 23.3 26.3 20.8 86 1.6 NNE 6 9 3 5 1011.8 1011.7 0.0
08/02:30am 22.6 25.0 20.1 86 1.6 ENE 7 9 4 5 1012.0 - 0.0
08/02:00am 22.9 26.7 20.1 84 1.8 CALM 0 0 0 0 1012.3 - 0.0
08/01:30am 23.2 27.0 20.2 83 1.9 CALM 0 0 0 0 1012.3 - 0.0
08/01:00am 23.6 26.3 20.3 82 2.1 NNE 6 7 3 4 1012.7 - 0.0
08/12:30am 23.7 26.3 20.4 82 2.1 NNE 7 9 4 5 1013.1 - 0.0
08/12:00am 23.7 26.8 20.2 81 2.3 NNW 4 7 2 4 1013.5 1013.4 0.0
 
Date/Time
EST
Temp
°C
App
Temp
°C
Dew
Point
°C
Rel
Hum
%
Delta-T
°C
Wind Press
QNH
hPa
Press
MSL
hPa
Rain since
9am
mm
Dir  Spd
km/h
Gust
km/h
Spd
kts
Gust
kts
07/11:30pm 24.4 26.9 20.3 78 2.7 WNW 7 9 4 5 1014.0 - 0.0
07/11:00pm 24.5 27.2 20.6 79 2.5 W 7 11 4 6 1013.9 - 0.0
07/10:30pm 24.5 26.8 20.6 79 2.5 N 9 13 5 7 1013.7 - 0.0
07/10:00pm 24.5 26.8 20.6 79 2.5 N 9 15 5 8 1013.5 - 0.0
07/09:30pm 24.5 27.1 20.4 78 2.7 N 7 13 4 7 1013.5 - 0.0
07/09:00pm 24.6 26.8 20.3 77 2.8 NNW 9 13 5 7 1013.7 1013.6 0.0
07/08:30pm 25.1 27.8 20.6 76 2.9 N 7 11 4 6 1013.3 - 0.0
07/08:00pm 25.4 27.6 20.4 74 3.3 WNW 9 15 5 8 1013.7 - 0.0
07/07:30pm 25.5 26.9 20.3 73 3.4 N 13 19 7 10 1013.3 - 0.0
07/07:00pm 25.6 26.9 20.2 72 3.5 N 13 22 7 12 1013.3 - 0.0
07/06:30pm 26.0 27.7 20.1 70 3.8 N 11 19 6 10 1013.2 - 0.0
07/06:00pm 26.2 27.7 19.8 68 4.2 N 11 20 6 11 1012.3 1012.2 0.0
07/05:30pm 26.6 26.5 19.5 65 4.6 N 19 28 10 15 1011.5 - 0.0
07/05:00pm 27.7 27.2 19.0 59 5.6 N 20 30 11 16 1010.7 - 0.0
07/04:30pm 28.8 28.5 19.1 55 6.3 N 19 30 10 16 1010.5 - 0.0
07/04:00pm 28.6 28.3 19.2 56 6.1 N 19 30 10 16 1010.7 - 0.0
07/03:30pm 28.7 28.0 18.2 53 6.7 N 19 26 10 14 1011.0 - 0.0
07/03:00pm 29.3 29.3 19.0 53 6.7 N 17 28 9 15 1011.3 1011.2 0.0
07/02:30pm 29.0 28.2 18.4 52 6.8 N 20 32 11 17 1011.4 - 0.0
07/02:00pm 29.3 29.3 19.0 53 6.7 N 17 28 9 15 1011.5 - 0.0
07/01:30pm 29.0 28.3 19.6 57 6.1 N 22 33 12 18 1011.7 - 0.0
07/01:00pm 29.2 29.5 19.5 56 6.3 N 17 24 9 13 1011.8 - 0.0
07/12:30pm 30.8 31.0 20.1 53 7.1 N 19 30 10 16 1012.2 - 0.0
07/12:00pm 30.1 30.2 19.2 52 7.1 N 17 24 9 13 1012.5 1012.4 0.0
07/11:30am 30.5 31.0 19.2 51 7.4 N 15 24 8 13 1012.8 - 0.0
07/11:00am 31.1 30.5 18.5 47 8.1 N 19 33 10 18 1012.7 - 0.0
07/10:30am 31.6 31.7 19.2 47 8.1 NNE 17 28 9 15 1013.2 - 0.0
07/10:00am 32.2 32.8 17.7 42 9.3 NNW 11 20 6 11 1013.7 - 0.0
07/09:30am 30.1 30.1 17.2 46 8.2 N 13 22 7 12 1014.3 - 0.0
07/09:00am 29.2 29.4 18.6 52 6.8 NNW 15 22 8 12 1014.7 1014.6 0.0
07/08:30am 28.5 30.1 20.0 60 5.6 NW 11 17 6 9 1015.0 - 0.0
07/08:00am 27.3 27.5 19.4 62 5.1 NW 17 22 9 12 1015.1 - 0.0
07/07:30am 26.1 27.4 20.2 70 3.8 NNW 13 17 7 9 1014.9 - 0.0
07/07:00am 24.8 27.7 21.1 80 2.4 NNW 7 11 4 6 1015.2 - 0.0
07/06:30am 23.3 26.1 20.4 84 1.9 N 6 9 3 5 1015.0 - 0.0
07/06:00am 22.8 26.3 20.3 86 1.6 NNW 2 7 1 4 1014.8 1014.7 0.0
07/05:30am 22.1 24.5 19.6 86 1.6 WNW 6 11 3 6 1014.4 - 0.0
07/05:00am 22.3 24.3 20.0 87 1.5 W 9 11 5 6 1014.4 - 0.0
07/04:30am 21.7 24.1 20.0 90 1.1 W 7 9 4 5 1013.9 - 0.0
07/04:00am 21.7 24.1 20.0 90 1.1 W 7 11 4 6 1013.2 - 0.0
07/03:30am 20.9 23.1 19.6 92 0.8 W 7 9 4 5 1012.8 - 0.0
07/03:00am 20.5 23.2 18.6 89 1.2 W 2 7 1 4 1012.0 1011.9 0.0
07/02:30am 20.9 24.2 19.0 89 1.2 CALM 0 0 0 0 1012.2 - 0.0
07/02:00am 21.1 22.8 18.5 85 1.6 W 7 9 4 5 1012.5 - 0.0
07/01:30am 21.7 24.5 18.9 84 1.8 N 2 6 1 3 1012.2 - 0.0
07/01:00am 21.9 24.3 18.7 82 2.0 N 4 7 2 4 1012.5 - 0.0
07/12:30am 22.6 24.8 19.2 81 2.2 N 6 7 3 4 1012.9 - 0.0
07/12:00am 23.3 25.5 19.7 80 2.3 NNW 7 9 4 5 1013.3 1013.2 0.0
 
Date/Time
EST
Temp
°C
App
Temp
°C
Dew
Point
°C
Rel
Hum
%
Delta-T
°C
Wind Press
QNH
hPa
Press
MSL
hPa
Rain since
9am
mm
Dir  Spd
km/h
Gust
km/h
Spd
kts
Gust
kts
06/11:30pm 23.5 25.0 19.8 80 2.4 N 11 13 6 7 1012.8 - 0.0
06/11:00pm 23.4 25.3 19.8 80 2.3 N 9 13 5 7 1013.1 - 0.0
06/10:30pm 23.5 25.7 19.6 79 2.5 N 7 11 4 6 1013.5 - 0.0
06/10:00pm 23.7 25.5 19.6 78 2.6 N 9 13 5 7 1013.5 - 0.0

Other Formats:

Comma delimited format used in spreadsheet applications
http://www.bom.gov.au/fwo/IDQ60801/IDQ60801.94567.axf

JavaScript Object Notation format (JSON) in row-major order
http://www.bom.gov.au/fwo/IDQ60801/IDQ60801.94567.json